KCDS

Childress Municipal Airport

Childress, Texas, USA
METAR KCDS 210653Z AUTO 00000KT 10SM CLR 17/16 A3008 RMK AO2 SLP167 T01670156
Observed Flight Rules
May-21 @ 06:53 UTC (17 minutes ago) Visual Flight Rules
Visibility Clouds
10 miles
  • Clear skies
Temperatures Readings
Current 17°C / 63°F
Dewpoint 16°C / 61°F
Humidity 94%
Altimeter 30.08" Hg
Pressure 1016.7 hPa
Elevation 594
METAR KCDS 210653Z AUTO 00000KT 10SM CLR 17/16 A3008 RMK AO2 SLP167 T01670156
Observed Flight Rules
May-21 @ 06:53 UTC
(17 minutes ago)
VFR
Clouds
  • Clear skies
Temperature Dewpoint
17°C / 63°F 16°C / 61°F
Humidity Altimeter Pressure
94% 30.08" Hg 1016.7 hPa